Time;durP1;ratioP1;P1;durP2;ratioP2;P2;SDS_P1;SDS_P2;PMS_P1;PMS_P2;Temp;Humidity;BMP_temperature;BMP_pressure;BME280_temperature;BME280_humidity;BME280_pressure;Samples;Min_cycle;Max_cycle;Signal;HPM_P1;HPM_P2
2022/04/26 03:36:42;;;;;;;27.95;12.05;;;1.30;99.90;;;-0.27;100.00;101217.13;5001522;28;20516;-74
2022/04/26 03:39:08;;;;;;;34.13;12.68;;;1.30;99.90;;;-0.25;100.00;101219.75;4982303;28;20033;-74
2022/04/26 03:41:35;;;;;;;38.30;15.25;;;1.40;99.90;;;-0.15;100.00;101218.06;4988580;28;20045;-75
2022/04/26 03:44:01;;;;;;;139.32;14.00;;;1.50;99.90;;;-0.05;100.00;101222.44;4998029;28;20045;-74
2022/04/26 03:46:27;;;;;;;27.65;12.50;;;1.60;99.90;;;0.07;100.00;101219.06;4997597;28;20018;-75
2022/04/26 03:48:53;;;;;;;39.72;15.70;;;1.70;99.90;;;0.22;100.00;101229.47;5002118;28;20061;-74
2022/04/26 03:51:19;;;;;;;24.85;12.75;;;1.80;99.90;;;0.32;100.00;101228.63;4998170;28;20069;-74
2022/04/26 03:53:46;;;;;;;28.35;12.50;;;1.90;99.90;;;0.39;100.00;101222.63;5006209;28;20024;-75
2022/04/26 03:56:12;;;;;;;34.42;12.30;;;1.90;99.90;;;0.43;100.00;101227.81;5003237;28;20451;-75
2022/04/26 03:58:38;;;;;;;22.42;10.75;;;2.00;99.90;;;0.48;100.00;101223.50;4991872;28;20042;-75
2022/04/26 04:01:04;;;;;;;25.35;11.23;;;2.00;99.90;;;0.51;100.00;101224.38;5023371;28;20040;-75
2022/04/26 04:03:30;;;;;;;29.25;11.77;;;2.00;99.90;;;0.52;100.00;101233.88;4989148;28;20045;-75
2022/04/26 04:05:56;;;;;;;36.10;14.98;;;1.90;99.90;;;0.36;100.00;101232.09;4996469;28;20110;-75
2022/04/26 04:08:22;;;;;;;31.55;14.57;;;1.90;99.90;;;0.35;100.00;101232.97;4967318;28;20049;-75
2022/04/26 04:10:47;;;;;;;26.15;11.88;;;1.90;99.90;;;0.42;100.00;101233.84;4987609;28;20036;-75
2022/04/26 04:13:13;;;;;;;17.02;8.77;;;1.90;99.90;;;0.40;100.00;101231.25;4980686;28;20414;-75
2022/04/26 04:15:39;;;;;;;20.02;9.43;;;1.90;99.90;;;0.45;100.00;101242.47;4987661;28;20036;-75
2022/04/26 04:19:17;;;;;;;21.27;11.15;;;1.90;99.90;;;0.51;100.00;101249.44;4987055;28;20603;-75
2022/04/26 04:20:54;;;;;;;15.55;9.60;;;1.90;99.90;;;0.57;100.00;101236.50;5001343;28;20057;-75
2022/04/26 04:23:20;;;;;;;18.70;9.75;;;2.00;99.90;;;0.74;100.00;101244.31;4999956;28;20817;-75
2022/04/26 04:25:46;;;;;;;28.08;13.15;;;2.10;99.90;;;0.93;99.39;101232.22;4983527;28;20047;-75
2022/04/26 04:28:12;;;;;;;22.92;11.55;;;2.30;99.90;;;1.24;98.04;101235.72;4998609;28;20029;-75
2022/04/26 04:30:38;;;;;;;19.95;10.85;;;2.70;99.90;;;1.76;96.61;101238.25;4997074;28;20025;-74
2022/04/26 04:33:03;;;;;;;26.13;11.93;;;3.10;99.90;;;2.43;94.82;101246.69;4998428;28;20053;-75
2022/04/26 04:35:29;;;;;;;24.52;12.48;;;3.70;99.90;;;3.57;90.92;101253.72;4996264;28;20026;-74
2022/04/26 04:37:55;;;;;;;29.20;13.73;;;5.00;99.90;;;5.82;84.50;101249.72;5000539;28;20049;-75
2022/04/26 04:40:21;;;;;;;26.92;11.65;;;6.10;99.90;;;7.47;75.67;101252.22;4997585;28;20414;-75
2022/04/26 04:42:46;;;;;;;17.92;11.00;;;7.20;99.90;;;8.76;68.91;101260.94;4997336;28;20128;-75
2022/04/26 04:45:12;;;;;;;18.17;10.25;;;8.50;99.90;;;10.54;62.60;101257.53;4990296;28;20080;-75
2022/04/26 04:47:38;;;;;;;15.35;9.05;;;9.70;99.90;;;12.04;57.48;101258.44;4999920;28;20037;-76
2022/04/26 04:50:04;;;;;;;11.10;7.55;;;10.80;99.90;;;13.36;53.67;101259.34;4997415;28;20051;-75
2022/04/26 04:52:30;;;;;;;12.43;7.43;;;11.90;99.90;;;14.52;50.07;101273.59;4999475;28;20876;-75
2022/04/26 04:54:56;;;;;;;15.25;8.02;;;12.90;99.90;;;15.66;47.28;101269.84;4980085;28;20072;-75
2022/04/26 04:57:22;;;;;;;14.60;7.10;;;13.80;99.90;;;16.78;44.88;101288.69;4990972;28;20454;-75
2022/04/26 04:59:48;;;;;;;9.70;6.47;;;14.60;99.90;;;17.82;43.38;101292.53;4998316;28;20025;-75
2022/04/26 05:02:14;;;;;;;27.17;7.63;;;15.50;99.90;;;18.78;41.17;101302.75;4991169;28;20028;-76
2022/04/26 05:04:42;;;;;;;18.15;7.57;;;16.30;99.90;;;19.91;39.41;101313.13;5001659;28;20045;-76
2022/04/26 05:07:09;;;;;;;11.85;7.72;;;17.10;99.90;;;20.93;37.84;101338.13;5003946;28;20022;-75
2022/04/26 05:09:35;;;;;;;10.68;6.88;;;17.80;99.40;;;21.76;36.16;101342.91;5002987;28;20029;-75
2022/04/26 05:12:01;;;;;;;13.10;7.55;;;18.50;98.20;;;22.51;34.94;101357.13;5002469;28;20105;-75
2022/04/26 05:14:26;;;;;;;15.18;8.27;;;19.20;97.10;;;23.12;34.45;101367.81;5003807;28;20068;-75
2022/04/26 05:16:52;;;;;;;11.35;8.20;;;19.60;96.30;;;23.73;33.93;101379.34;5003548;28;20029;-75
2022/04/26 05:19:18;;;;;;;12.07;8.65;;;20.10;95.70;;;24.16;33.36;101386.13;5004025;28;20147;-76
2022/04/26 05:21:44;;;;;;;13.50;8.60;;;20.60;95.60;;;25.00;32.42;101397.94;5000608;28;20057;-76
2022/04/26 05:26:53;;;;;;;13.52;8.85;;;21.60;94.20;;;26.16;30.96;101415.19;5002057;28;20816;-76
2022/04/26 05:29:19;;;;;;;14.73;10.20;;;22.10;93.50;;;26.59;30.33;101417.03;5002938;28;20030;-77
2022/04/26 05:31:45;;;;;;;18.23;10.45;;;;;;;26.96;29.92;101426.69;4983797;28;20068;-75
2022/04/26 05:34:11;;;;;;;16.65;10.30;;;22.80;92.40;;;27.39;29.49;101437.53;5008101;28;20059;-74
2022/04/26 05:36:36;;;;;;;13.73;10.20;;;23.10;92.10;;;27.82;28.71;101443.69;4989857;28;20038;-76
2022/04/26 05:39:02;;;;;;;13.20;9.68;;;23.40;90.90;;;28.05;28.59;101451.19;5003904;28;20038;-76
2022/04/26 05:41:28;;;;;;;17.35;10.15;;;23.80;91.10;;;28.61;28.01;101457.59;4985523;28;22272;-76
2022/04/26 05:43:54;;;;;;;17.95;9.98;;;24.20;90.40;;;28.95;27.66;101462.75;5004257;28;20173;-76
2022/04/26 05:46:19;;;;;;;15.60;11.15;;;24.50;90.00;;;29.12;27.39;101477.13;4990897;28;20467;-75
2022/04/26 05:48:45;;;;;;;17.23;10.90;;;24.60;88.70;;;29.06;26.91;101475.09;4977220;28;20095;-76
2022/04/26 05:51:13;;;;;;;15.68;10.63;;;24.70;87.30;;;29.11;26.99;101486.28;4990716;28;20026;-76
2022/04/26 05:53:39;;;;;;;15.70;9.93;;;24.70;86.90;;;28.79;27.03;101492.59;4991450;28;20057;-75
2022/04/26 05:56:05;;;;;;;16.00;9.55;;;24.60;87.10;;;28.76;27.40;101503.81;4991344;28;20160;-76
2022/04/26 05:58:32;;;;;;;11.35;9.00;;;24.70;85.80;;;28.73;27.32;101502.28;4990106;28;20038;-74
2022/04/26 06:00:57;;;;;;;11.25;8.57;;;24.80;86.30;;;29.11;27.00;101509.84;4992696;28;20034;-76
2022/04/26 06:03:23;;;;;;;16.60;10.07;;;25.00;85.00;;;29.29;26.79;101513.19;4998440;28;20060;-75
2022/04/26 06:05:49;;;;;;;15.10;9.48;;;25.20;84.60;;;29.39;26.86;101518.38;4985437;28;20033;-76
2022/04/26 06:08:17;;;;;;;13.60;9.88;;;25.50;84.60;;;29.65;26.43;101521.66;5002136;28;20065;-76
2022/04/26 06:10:43;;;;;;;12.77;9.73;;;25.70;85.40;;;30.14;26.32;101533.25;4978537;28;21913;-76
2022/04/26 06:13:09;;;;;;;14.95;10.90;;;25.90;84.10;;;29.70;26.87;101537.44;4999928;28;20535;-76
2022/04/26 06:15:35;;;;;;;15.25;10.63;;;26.20;83.70;;;30.49;26.07;101530.97;4975498;28;20030;-76
2022/04/26 06:18:01;;;;;;;15.48;10.80;;;26.60;83.70;;;31.15;25.23;101551.06;4991927;28;20034;-76
2022/04/26 06:20:27;;;;;;;22.35;11.18;;;27.10;82.40;;;31.56;25.09;101547.88;4973565;28;20053;-76
2022/04/26 06:22:53;;;;;;;18.58;10.75;;;27.50;82.20;;;31.09;25.18;101557.25;4993123;28;20396;-76
2022/04/26 06:25:19;;;;;;;15.55;9.73;;;27.50;81.20;;;30.03;26.48;101545.38;4991853;28;20030;-76
2022/04/26 06:27:47;;;;;;;18.80;10.65;;;27.30;80.60;;;30.07;26.65;101549.44;4988599;28;20057;-79
2022/04/26 06:30:13;;;;;;;22.65;10.00;;;27.50;81.20;;;30.79;25.79;101557.16;4994203;28;20132;-76
2022/04/26 06:32:42;;;;;;;14.23;9.70;;;27.50;79.70;;;29.59;27.33;101545.91;4999320;28;20045;-76
2022/04/26 06:35:08;;;;;;;14.32;9.52;;;27.20;79.50;;;28.58;28.01;101547.34;5002047;28;20030;-77
2022/04/26 06:37:34;;;;;;;14.95;9.77;;;26.90;80.30;;;28.82;28.88;101541.91;5011989;28;20065;-77
2022/04/26 06:39:59;;;;;;;14.02;9.02;;;27.00;81.80;;;30.09;27.58;101547.38;5000254;28;20474;-76
2022/04/26 06:42:25;;;;;;;10.93;8.02;;;27.60;81.70;;;30.89;26.12;101550.66;4957172;28;20564;-77
2022/04/26 06:44:51;;;;;;;13.07;8.27;;;28.30;79.90;;;31.63;25.39;101553.41;4977433;28;20049;-76
2022/04/26 06:47:16;;;;;;;14.20;7.88;;;29.00;78.00;;;32.10;24.56;101562.13;5000318;28;20067;-76
2022/04/26 06:49:42;;;;;;;11.82;8.35;;;29.60;77.20;;;32.65;24.93;101557.84;4993273;28;20040;-76
2022/04/26 06:52:08;;;;;;;10.82;7.68;;;30.10;76.10;;;33.04;24.30;101559.16;4991023;28;20744;-77
2022/04/26 06:54:33;;;;;;;11.50;7.75;;;30.70;74.20;;;33.30;23.59;101562.09;4983506;28;20040;-77
2022/04/26 06:56:59;;;;;;;12.23;8.18;;;31.10;73.40;;;33.59;23.22;101562.03;4979359;28;20057;-77
2022/04/26 06:59:25;;;;;;;11.38;7.53;;;31.50;71.60;;;33.79;22.93;101565.69;4974630;28;20056;-76
2022/04/26 07:01:54;;;;;;;9.07;6.63;;;31.80;70.40;;;33.78;22.63;101564.00;4968054;28;20056;-76
2022/04/26 07:04:20;;;;;;;8.90;6.45;;;32.00;68.50;;;33.80;22.68;101570.13;5002740;28;20030;-77
2022/04/26 07:06:48;;;;;;;9.27;5.88;;;32.20;68.70;;;33.90;22.33;101572.44;4993451;28;20083;-76
2022/04/26 07:09:14;;;;;;;7.72;5.93;;;32.40;65.80;;;33.88;22.90;101569.91;4989761;28;20033;-76
2022/04/26 07:11:42;;;;;;;9.52;5.30;;;32.50;66.10;;;34.07;21.95;101562.81;4984318;28;20041;-77
2022/04/26 07:14:10;;;;;;;7.65;5.65;;;32.70;65.90;;;34.06;22.17;101572.06;4981463;28;20025;-77
2022/04/26 07:16:36;;;;;;;11.57;5.47;;;32.80;60.10;;;33.98;22.20;101579.63;4982999;28;22307;-77
2022/04/26 07:19:02;;;;;;;9.82;6.03;;;32.80;62.80;;;33.89;22.01;101570.75;5006833;28;20025;-77
2022/04/26 07:21:28;;;;;;;6.97;4.72;;;32.80;60.60;;;33.68;21.67;101569.84;4993745;28;20055;-78
2022/04/26 07:23:54;;;;;;;7.75;4.85;;;32.80;60.30;;;33.66;21.99;101571.94;4985747;28;20175;-77
2022/04/26 07:26:19;;;;;;;7.75;4.45;;;32.60;57.40;;;33.07;21.65;101581.47;4992020;28;20054;-77
2022/04/26 07:28:45;;;;;;;6.30;4.63;;;32.50;61.80;;;32.92;21.98;101572.53;4966964;28;20034;-77
2022/04/26 07:31:11;;;;;;;8.77;4.70;;;32.40;58.60;;;32.84;22.46;101578.97;4961489;28;20486;-77
2022/04/26 07:36:22;;;;;;;11.65;5.43;;;32.50;58.10;;;32.80;22.25;101587.75;4999117;28;20179;-77
2022/04/26 07:38:49;;;;;;;6.38;3.85;;;32.60;59.10;;;32.92;21.91;101593.47;4994666;28;20109;-76
2022/04/26 07:41:16;;;;;;;5.35;3.88;;;32.30;57.30;;;32.23;22.10;101587.63;4959522;28;20046;-77
2022/04/26 07:43:42;;;;;;;10.50;4.85;;;32.20;58.60;;;31.81;22.68;101583.75;4998184;28;20049;-77
2022/04/26 07:46:08;;;;;;;6.38;4.03;;;32.00;56.80;;;31.73;22.78;101588.47;5000670;28;20040;-77
2022/04/26 07:48:39;;;;;;;5.25;4.07;;;31.90;58.70;;;31.50;22.70;101584.00;4974958;28;20022;-76
2022/04/26 07:51:04;;;;;;;6.35;4.13;;;31.80;58.30;;;31.37;22.84;101587.34;5015320;28;20371;-77
2022/04/26 07:53:30;;;;;;;6.75;3.42;;;31.70;59.00;;;31.45;22.55;101583.75;5000231;28;20138;-77
2022/04/26 07:55:56;;;;;;;5.35;3.35;;;31.60;58.10;;;31.34;22.43;101586.88;4962157;28;20057;-76
2022/04/26 07:58:22;;;;;;;6.05;4.00;;;31.60;56.40;;;31.38;22.62;101596.34;4977894;28;20471;-76
2022/04/26 08:00:48;;;;;;;3.65;2.70;;;31.50;57.30;;;31.26;22.22;101591.41;4992090;28;20021;-76
2022/04/26 08:03:14;;;;;;;4.45;3.22;;;31.40;58.50;;;31.10;23.08;101594.28;4981641;28;20379;-76
2022/04/26 08:05:40;;;;;;;5.53;4.00;;;31.30;55.70;;;30.93;22.94;101603.63;4991885;28;20033;-77
2022/04/26 08:08:06;;;;;;;7.78;3.88;;;31.20;58.60;;;30.90;22.98;101598.56;4976336;28;20038;-76
2022/04/26 08:10:34;;;;;;;7.32;4.47;;;31.10;58.20;;;30.68;23.05;101592.97;4983543;28;20045;-76
2022/04/26 08:12:59;;;;;;;4.78;3.83;;;30.90;57.80;;;30.55;23.99;101592.75;4999279;28;20030;-77
2022/04/26 08:15:25;;;;;;;4.28;2.70;;;30.80;58.40;;;30.25;23.66;101587.97;4999926;28;20054;-77
2022/04/26 08:17:51;;;;;;;6.90;3.58;;;30.50;56.70;;;30.03;24.01;101589.66;5000250;28;20188;-76
2022/04/26 08:20:17;;;;;;;6.13;3.70;;;30.40;58.60;;;30.01;24.38;101580.84;4965486;28;20041;-77
2022/04/26 08:22:43;;;;;;;4.70;3.30;;;30.20;58.40;;;29.74;24.02;101586.75;4988964;28;20453;-77
2022/04/26 08:27:56;;;;;;;6.53;2.88;;;29.30;58.90;;;28.56;25.32;101590.84;4969206;28;20120;-77
2022/04/26 08:30:22;;;;;;;8.05;4.25;;;29.00;58.40;;;28.32;25.48;101582.69;4974003;28;20037;-77
2022/04/26 08:32:49;;;;;;;9.15;3.83;;;28.60;59.80;;;28.00;26.45;101577.03;4967087;28;20177;-78
2022/04/26 08:35:21;;;;;;;8.55;4.63;;;28.40;60.60;;;27.78;26.17;101562.25;4980555;28;20493;-76
2022/04/26 08:37:47;;;;;;;7.28;5.30;;;28.00;59.50;;;27.35;27.46;101569.50;4998757;28;20559;-77
2022/04/26 08:40:13;;;;;;;8.65;4.93;;;27.80;61.70;;;27.12;26.75;101579.97;4991794;28;20030;-75
2022/04/26 08:42:42;;;;;;;8.30;5.53;;;27.30;59.50;;;26.05;27.92;101575.50;4988255;28;20116;-77
2022/04/26 08:45:15;;;;;;;6.28;4.78;;;26.60;60.40;;;25.32;28.59;101568.16;4977340;28;20042;-77
2022/04/26 08:53:15;;;;;;;7.63;4.60;;;24.60;64.80;;;23.63;31.16;101550.53;4997632;28;20080;-76
2022/04/26 08:55:43;;;;;;;9.52;4.45;;;24.00;64.50;;;22.57;33.04;101547.13;4995665;28;20046;-77
2022/04/26 08:58:11;;;;;;;7.18;5.15;;;23.40;67.30;;;21.94;34.35;101543.41;4974829;28;20037;-76
2022/04/26 09:00:39;;;;;;;12.63;4.80;;;23.00;69.10;;;21.64;35.07;101536.88;4971639;28;20048;-77
2022/04/26 09:03:07;;;;;;;8.82;5.32;;;22.50;69.00;;;21.14;35.53;101526.50;4974332;28;20029;-76
2022/04/26 09:05:35;;;;;;;8.10;5.15;;;22.20;70.60;;;20.90;35.96;101523.94;4986238;28;20018;-76
2022/04/26 09:08:19;;;;;;;6.70;4.20;;;22.00;70.30;;;21.04;35.63;101523.72;4980230;28;20030;-76
2022/04/26 09:10:51;;;;;;;8.25;4.40;;;21.90;71.10;;;21.07;35.91;101523.47;4982395;28;20154;-76
2022/04/26 09:13:20;;;;;;;9.25;4.97;;;21.90;72.60;;;21.09;35.47;101508.13;4977251;28;20034;-76
2022/04/26 09:15:57;;;;;;;6.40;4.60;;;21.90;72.30;;;20.93;35.47;101515.69;4979618;28;20030;-76
2022/04/26 09:18:30;;;;;;;10.63;5.13;;;21.60;70.60;;;20.36;36.00;101511.13;4986318;28;20022;-75
2022/04/26 09:21:10;;;;;;;9.65;4.63;;;21.40;70.60;;;19.97;36.20;101497.94;4971461;28;20038;-76
2022/04/26 09:23:39;;;;;;;8.55;4.82;;;21.00;72.20;;;19.76;37.13;101488.81;4973554;28;20050;-76
2022/04/26 09:26:07;;;;;;;8.93;4.53;;;20.80;72.80;;;19.49;37.84;101491.66;4971155;28;20495;-76
2022/04/26 09:28:50;;;;;;;7.63;4.28;;;20.70;75.90;;;19.76;39.08;101478.13;4992630;28;20030;-76
2022/04/26 09:31:30;;;;;;;8.30;4.70;;;20.70;73.10;;;19.70;36.92;101486.59;4982141;28;20034;-77
2022/04/26 09:34:04;;;;;;;9.65;4.63;;;20.70;73.90;;;19.87;37.56;101479.06;4981648;28;20029;-76
2022/04/26 09:36:35;;;;;;;7.30;4.68;;;20.70;78.90;;;20.08;39.61;101475.75;4981214;28;20515;-77
2022/04/26 09:39:05;;;;;;;12.20;4.30;;;20.90;73.10;;;20.13;37.07;101478.06;5000005;28;20033;-76
2022/04/26 09:41:32;;;;;;;773.78;57.03;;;20.90;74.40;;;20.12;37.44;101466.53;4995342;28;20035;-75
2022/04/26 09:44:09;;;;;;;12.88;4.57;;;20.90;74.10;;;20.23;36.82;101468.41;4995762;28;20401;-76
2022/04/26 09:46:41;;;;;;;7.97;4.95;;;21.00;75.40;;;20.38;37.21;101461.03;4996887;28;20026;-76
2022/04/26 09:49:11;;;;;;;6.40;4.47;;;21.10;74.30;;;20.38;36.99;101456.53;4998492;28;20091;-76
2022/04/26 09:51:40;;;;;;;8.35;4.50;;;21.10;73.90;;;20.41;37.04;101458.13;5017898;28;20026;-76
2022/04/26 09:54:07;;;;;;;9.05;4.07;;;21.10;72.20;;;20.32;36.76;101458.81;4999934;28;20137;-76
2022/04/26 09:56:34;;;;;;;5.90;3.97;;;21.30;74.80;;;20.65;36.44;101448.25;4999950;28;20544;-76
2022/04/26 09:59:03;;;;;;;10.02;4.18;;;21.40;74.30;;;20.79;36.87;101443.63;4973672;28;20524;-76
2022/04/26 10:01:45;;;;;;;6.28;4.35;;;21.40;72.10;;;20.59;35.68;101454.06;4990492;28;20117;-76
2022/04/26 10:04:20;;;;;;;19.98;5.10;;;21.30;72.80;;;20.44;36.44;101441.84;4982313;28;20088;-76
2022/04/26 10:06:49;;;;;;;18.20;4.93;;;21.10;74.00;;;20.32;37.13;101442.78;5005227;28;20034;-76
2022/04/26 10:09:19;;;;;;;11.35;4.38;;;21.00;72.60;;;20.04;36.84;101437.72;5014219;28;20657;-76
2022/04/26 10:11:45;;;;;;;10.27;4.05;;;20.90;72.60;;;19.92;36.76;101437.78;4993914;28;20657;-77
2022/04/26 10:14:12;;;;;;;8.63;4.65;;;20.70;73.10;;;19.66;36.88;101428.03;5001871;28;20035;-75
2022/04/26 10:16:45;;;;;;;9.63;4.18;;;20.40;72.90;;;19.20;37.54;101435.84;5000765;28;20029;-77
2022/04/26 10:19:13;;;;;;;6.22;4.15;;;20.00;72.70;;;18.52;38.55;101419.25;4997645;28;20038;-75
2022/04/26 10:21:39;;;;;;;10.25;3.92;;;19.70;75.70;;;18.50;39.66;101418.50;5000504;28;20026;-77
2022/04/26 10:24:22;;;;;;;44.42;5.55;;;19.40;76.90;;;18.53;40.19;101420.09;5002251;28;20482;-76
2022/04/26 10:26:51;;;;;;;16.33;5.15;;;19.30;78.90;;;18.38;40.88;101411.31;5001197;28;20109;-76
2022/04/26 10:29:27;;;;;;;8.95;4.30;;;19.10;77.20;;;18.18;40.20;101410.88;4994860;28;20045;-75
2022/04/26 10:32:10;;;;;;;8.82;4.45;;;18.90;79.10;;;18.06;41.59;101401.06;4982944;28;20705;-76
2022/04/26 10:34:41;;;;;;;7.30;4.82;;;18.80;79.00;;;17.93;41.12;101403.69;4959873;28;20030;-76
2022/04/26 10:37:17;;;;;;;9.23;4.55;;;18.70;80.20;;;17.89;41.24;101398.69;4984321;28;20632;-77
2022/04/26 10:40:00;;;;;;;6.95;4.22;;;18.70;82.60;;;18.24;43.36;101399.81;4984963;28;20042;-76
2022/04/26 10:42:29;;;;;;;6.82;3.88;;;19.00;80.40;;;18.56;40.53;101388.72;4983104;28;20411;-76
2022/04/26 10:45:12;;;;;;;8.52;3.80;;;19.20;79.00;;;18.71;40.38;101391.31;5000852;28;20061;-76
2022/04/26 10:47:45;;;;;;;6.80;4.07;;;19.30;78.40;;;18.62;40.35;101393.66;5001586;28;20040;-77
2022/04/26 10:50:13;;;;;;;8.90;3.85;;;19.30;78.70;;;18.45;40.21;101388.63;4999407;28;20494;-77
2022/04/26 10:52:43;;;;;;;9.15;4.30;;;19.10;77.50;;;18.21;40.14;101393.84;4963011;28;20036;-76
2022/04/26 10:55:12;;;;;;;6.00;4.32;;;19.00;80.60;;;18.08;41.77;101383.16;5013647;28;20482;-76
2022/04/26 10:57:42;;;;;;;6.68;4.22;;;18.80;79.40;;;18.02;41.08;101387.09;4984475;28;20061;-76
2022/04/26 11:00:28;;;;;;;10.50;4.18;;;18.80;80.40;;;17.96;41.81;101383.97;4976920;28;20043;-77
2022/04/26 11:03:04;;;;;;;6.20;3.53;;;18.70;80.90;;;17.82;42.69;101384.91;5000281;28;20038;-76
2022/04/26 11:05:32;;;;;;;10.23;4.00;;;18.60;80.50;;;17.75;41.89;101379.13;5005945;28;20044;-77
2022/04/26 11:08:09;;;;;;;9.15;4.00;;;18.50;81.30;;;17.65;42.15;101382.50;5012122;28;20038;-78
2022/04/26 11:13:35;;;;;;;6.18;4.00;;;18.30;81.40;;;17.41;41.82;101383.13;5001902;28;20044;-76
2022/04/26 11:16:13;;;;;;;8.63;3.90;;;18.40;81.90;;;17.89;41.52;101375.56;5000594;28;20026;-76
2022/04/26 11:18:43;;;;;;;6.90;3.70;;;18.70;80.00;;;18.42;40.81;101378.16;5004693;28;20061;-76
2022/04/26 11:21:09;;;;;;;5.03;3.65;;;19.00;75.80;;;18.55;38.70;101379.03;5016406;28;20045;-76
2022/04/26 11:29:26;;;;;;;5.82;3.28;;;19.30;75.70;;;18.68;38.12;101391.50;5014524;28;20041;-76
2022/04/26 11:31:55;;;;;;;8.75;3.78;;;19.40;76.60;;;18.84;37.95;101392.16;5000952;28;20491;-77
2022/04/26 11:34:42;;;;;;;8.48;3.63;;;19.50;76.90;;;19.12;39.32;101387.53;4993605;28;20699;-76
2022/04/26 11:37:10;;;;;;;;;;;19.60;79.30;;;19.21;38.05;101381.50;5001735;28;20069;-77
2022/04/26 11:39:46;;;;;;;4.32;3.47;;;19.90;73.80;;;19.03;37.86;101381.88;5003781;28;20012;-77
2022/04/26 11:42:12;;;;;;;10.30;4.13;;;19.80;75.20;;;19.15;38.63;101385.47;4993182;28;20046;-77
2022/04/26 11:45:06;;;;;;;5.43;4.10;;;19.60;79.60;;;18.71;42.20;101383.28;4967180;28;20034;-76
2022/04/26 11:47:49;;;;;;;6.95;4.75;;;19.40;78.60;;;18.55;41.29;101387.03;4986510;28;20079;-77
2022/04/26 11:50:27;;;;;;;9.35;4.28;;;19.30;78.50;;;18.42;40.11;101387.03;4997077;28;20442;-77
2022/04/26 11:53:00;;;;;;;8.27;4.70;;;19.00;77.80;;;17.91;41.20;101378.13;4993049;28;21737;-77
2022/04/26 11:55:30;;;;;;;11.23;5.22;;;18.70;80.50;;;17.70;41.87;101381.22;4984686;28;20041;-77
2022/04/26 11:58:19;;;;;;;8.60;4.88;;;18.30;78.60;;;17.16;41.94;101375.88;4982751;28;20490;-77
2022/04/26 12:01:03;;;;;;;8.02;4.55;;;18.20;80.60;;;17.33;42.02;101370.31;5000703;28;20555;-77
2022/04/26 12:03:33;;;;;;;7.88;5.25;;;18.10;84.20;;;17.55;43.28;101382.22;4987753;28;20461;-77
2022/04/26 12:06:10;;;;;;;7.28;5.07;;;18.40;84.40;;;18.11;42.84;101366.09;5001961;28;20017;-78
2022/04/26 12:08:50;;;;;;;8.18;5.30;;;18.80;81.80;;;18.70;40.87;101370.91;5002083;28;20447;-76
2022/04/26 12:11:20;;;;;;;16.20;5.05;;;19.30;80.40;;;19.16;40.11;101368.50;4987944;28;20398;-77
2022/04/26 12:14:07;;;;;;;8.00;4.60;;;19.70;80.20;;;19.49;38.88;101366.16;4998403;28;20033;-77
2022/04/26 12:16:40;;;;;;;6.97;4.70;;;20.10;80.50;;;19.90;40.13;101370.25;4979486;28;20045;-77
2022/04/26 12:19:06;;;;;;;6.32;4.28;;;20.40;80.00;;;20.13;40.34;101371.13;4990305;28;20038;-76
2022/04/26 12:21:54;;;;;;;12.98;4.03;;;20.70;76.10;;;20.59;37.92;101386.34;5001102;28;20494;-77
2022/04/26 12:24:23;;;;;;;7.75;4.18;;;21.00;74.90;;;20.64;37.30;101386.81;4996841;28;20516;-77
2022/04/26 12:26:55;;;;;;;10.13;4.68;;;20.70;74.70;;;19.88;38.02;101387.22;4978188;28;20034;-77
2022/04/26 12:29:24;;;;;;;6.72;4.80;;;20.30;74.80;;;19.19;38.56;101380.78;4978486;28;20451;-77
2022/04/26 12:31:50;;;;;;;8.23;4.95;;;19.80;74.10;;;18.46;39.36;101377.00;4985490;28;20056;-77
2022/04/26 12:34:29;;;;;;;9.50;5.43;;;19.30;76.30;;;18.04;39.94;101381.66;5000238;28;20029;-77
2022/04/26 12:37:15;;;;;;;9.40;5.10;;;18.60;77.10;;;17.21;41.12;101387.94;4999965;28;20429;-77
2022/04/26 12:39:48;;;;;;;8.15;4.30;;;18.00;77.00;;;16.69;42.10;101377.00;5015912;28;20030;-77
2022/04/26 12:42:28;;;;;;;7.20;4.50;;;17.70;81.10;;;16.52;43.42;101378.94;5000047;28;20518;-78
2022/04/26 12:44:55;;;;;;;7.82;5.13;;;17.60;83.80;;;16.62;44.13;101373.88;4991639;28;20022;-76
2022/04/26 12:50:33;;;;;;;12.02;4.78;;;17.50;81.30;;;16.38;44.62;101377.09;5001599;28;20045;-77
2022/04/26 12:53:02;;;;;;;9.15;4.93;;;17.50;81.40;;;16.65;42.93;101376.38;5000109;28;20033;-77
2022/04/26 12:55:40;;;;;;;8.90;5.50;;;17.60;80.20;;;16.86;41.70;101360.88;4986318;28;20049;-77
2022/04/26 12:58:09;;;;;;;10.73;4.50;;;17.80;81.10;;;17.33;41.83;101359.66;4998312;28;20033;-77
2022/04/26 13:00:47;;;;;;;7.35;4.45;;;18.10;82.30;;;17.85;42.27;101352.72;4961333;28;20018;-78
2022/04/26 13:03:17;;;;;;;7.07;4.57;;;18.50;81.50;;;18.28;41.01;101351.63;4988104;28;20046;-77
2022/04/26 13:05:54;;;;;;;8.23;4.93;;;18.80;80.10;;;18.42;41.00;101349.72;4997892;28;20058;-76
2022/04/26 13:08:21;;;;;;;10.13;4.28;;;18.90;80.10;;;18.21;40.63;101341.38;4990374;28;20371;-77
2022/04/26 13:10:48;;;;;;;8.50;5.15;;;18.80;80.10;;;18.06;41.32;101353.09;5000350;28;20113;-78
2022/04/26 13:13:14;;;;;;;6.90;4.82;;;18.60;78.50;;;17.66;41.22;101355.72;4982260;28;20052;-76
2022/04/26 13:15:42;;;;;;;7.13;4.68;;;18.20;79.90;;;17.13;41.89;101349.47;5000721;28;20468;-77
2022/04/26 13:18:10;;;;;;;9.00;4.80;;;17.90;80.50;;;16.73;42.33;101351.94;4983609;28;20022;-77
2022/04/26 13:20:37;;;;;;;9.07;4.63;;;17.60;80.40;;;16.49;43.03;101352.53;4999048;28;20119;-77
2022/04/26 13:23:03;;;;;;;5.68;4.22;;;17.20;79.70;;;16.05;42.45;101337.47;4984496;28;20041;-77
2022/04/26 13:25:29;;;;;;;8.27;4.63;;;17.00;78.90;;;15.94;42.02;101345.25;5003156;28;20038;-78
2022/04/26 13:27:55;;;;;;;6.05;4.20;;;16.90;81.50;;;15.86;43.22;101337.72;5002293;28;20783;-77
2022/04/26 13:30:21;;;;;;;8.20;4.63;;;16.70;86.90;;;15.50;47.08;101344.19;5003095;28;20044;-77
2022/04/26 13:32:48;;;;;;;10.95;5.43;;;16.20;86.90;;;14.79;48.47;101344.63;4989771;28;20477;-76
2022/04/26 13:35:13;;;;;;;4.72;3.58;;;15.90;88.90;;;14.25;48.84;101339.50;5005290;28;20049;-77
2022/04/26 13:37:39;;;;;;;8.10;4.95;;;15.70;87.60;;;14.27;48.65;101339.41;5004069;28;20072;-76
2022/04/26 13:40:07;;;;;;;6.38;4.00;;;15.50;87.30;;;14.14;48.71;101347.16;5001075;28;20049;-77
2022/04/26 13:42:35;;;;;;;6.13;4.43;;;15.40;87.80;;;14.02;48.75;101337.22;5004354;28;20048;-76
2022/04/26 13:45:01;;;;;;;6.63;4.68;;;15.30;88.10;;;14.21;48.79;101334.44;5001650;28;20513;-77
2022/04/26 13:47:27;;;;;;;6.60;4.47;;;15.30;88.80;;;14.24;48.17;101331.66;5005004;28;20641;-78
2022/04/26 13:49:53;;;;;;;6.35;4.47;;;15.50;89.10;;;14.72;48.29;101327.34;4983879;28;20034;-77
2022/04/26 13:52:20;;;;;;;9.90;4.28;;;15.70;88.80;;;14.92;47.62;101327.13;5002715;28;20033;-77
2022/04/26 13:54:47;;;;;;;10.07;5.97;;;15.60;87.30;;;14.56;47.62;101330.81;5002277;28;20049;-77
2022/04/26 13:57:13;;;;;;;8.07;4.88;;;15.50;86.70;;;14.32;47.87;101330.31;5004938;28;20434;-77
2022/04/26 13:59:39;;;;;;;8.32;4.93;;;15.40;87.50;;;14.37;47.97;101324.75;5003721;28;20033;-77
2022/04/26 14:02:06;;;;;;;9.90;6.03;;;15.50;87.30;;;14.47;47.89;101323.34;5001871;28;20890;-77
2022/04/26 14:04:32;;;;;;;11.57;5.75;;;15.30;88.20;;;14.22;48.86;101323.78;5005304;28;20025;-76
2022/04/26 14:06:58;;;;;;;6.70;3.90;;;15.40;87.80;;;14.43;48.02;101327.09;5000110;28;20075;-77
2022/04/26 14:09:24;;;;;;;13.50;5.50;;;15.30;86.50;;;14.17;47.21;101317.88;4987081;28;20038;-77
2022/04/26 14:11:55;;;;;;;9.05;3.70;;;15.50;88.40;;;14.53;47.60;101316.84;4991416;28;20086;-77
2022/04/26 14:22:35;;;;;;;6.43;3.65;;;15.00;87.20;;;13.68;48.52;101320.38;5002105;28;20073;-76
2022/04/26 14:25:03;;;;;;;5.18;3.47;;;15.00;87.60;;;13.75;48.62;101327.91;4977880;28;20029;-77
2022/04/26 14:27:30;;;;;;;9.57;3.83;;;15.00;88.60;;;14.07;48.79;101317.47;5004244;28;20477;-77